Time;durP1;ratioP1;P1;durP2;ratioP2;P2;SDS_P1;SDS_P2;PMS_P1;PMS_P2;Temp;Humidity;BMP_temperature;BMP_pressure;BME280_temperature;BME280_humidity;BME280_pressure;Samples;Min_cycle;Max_cycle;Signal;HPM_P1;HPM_P2
2021/05/30 00:00:36;;;;;;;4.03;2.20;;;21.10;53.20;;;;;;5045713;28;20053;-58
2021/05/30 00:03:03;;;;;;;2.30;2.05;;;21.10;53.20;;;;;;5044021;28;20406;-58
2021/05/30 00:05:31;;;;;;;3.78;2.10;;;21.10;53.20;;;;;;5044597;28;20048;-58
2021/05/30 00:07:59;;;;;;;4.63;2.22;;;21.10;53.20;;;;;;5045966;28;20096;-58
2021/05/30 00:10:30;;;;;;;2.88;2.15;;;21.10;53.20;;;;;;5038555;28;20215;-55
2021/05/30 00:12:58;;;;;;;3.00;2.17;;;21.10;53.20;;;;;;5042759;28;20077;-58
2021/05/30 00:15:25;;;;;;;3.38;2.22;;;21.10;53.20;;;;;;5052396;28;20524;-57
2021/05/30 00:17:53;;;;;;;4.63;2.30;;;21.10;53.20;;;;;;5052609;28;20045;-57
2021/05/30 00:20:20;;;;;;;3.53;2.33;;;21.10;53.20;;;;;;5052417;28;20040;-57
2021/05/30 00:22:47;;;;;;;3.72;1.88;;;21.10;53.20;;;;;;5053297;28;20058;-58
2021/05/30 00:25:15;;;;;;;3.80;2.22;;;21.10;53.20;;;;;;5052991;28;20048;-58
2021/05/30 00:27:42;;;;;;;3.72;2.20;;;21.10;53.20;;;;;;5053069;28;20051;-58
2021/05/30 00:30:10;;;;;;;2.85;1.70;;;21.10;53.20;;;;;;5053149;28;20072;-58
2021/05/30 00:32:38;;;;;;;3.10;2.05;;;21.10;53.80;;;;;;5053183;28;20049;-57
2021/05/30 00:35:05;;;;;;;3.63;2.10;;;21.10;53.20;;;;;;5035887;28;20103;-58
2021/05/30 00:37:33;;;;;;;3.05;2.08;;;21.10;53.20;;;;;;5053117;28;20552;-58
2021/05/30 00:40:00;;;;;;;2.85;1.98;;;21.10;53.20;;;;;;5053235;28;20063;-58
2021/05/30 00:42:27;;;;;;;4.35;2.35;;;21.10;53.20;;;;;;5053133;28;20053;-56
2021/05/30 00:44:54;;;;;;;1.75;1.58;;;21.00;53.20;;;;;;5037000;28;20054;-57
2021/05/30 00:47:21;;;;;;;3.15;2.13;;;21.10;53.20;;;;;;5050614;28;20045;-58
2021/05/30 00:49:49;;;;;;;3.08;1.98;;;21.10;53.20;;;;;;5039557;28;20121;-58
2021/05/30 00:52:16;;;;;;;3.58;2.05;;;21.10;53.30;;;;;;5036265;28;20049;-58
2021/05/30 00:54:43;;;;;;;3.60;2.20;;;21.00;53.20;;;;;;5036302;28;20498;-59
2021/05/30 00:57:11;;;;;;;3.58;2.05;;;21.00;53.10;;;;;;5036302;28;20111;-57
2021/05/30 00:59:40;;;;;;;4.20;1.90;;;21.10;53.30;;;;;;5047192;28;20106;-58
2021/05/30 01:02:08;;;;;;;2.67;1.63;;;21.00;53.20;;;;;;5052915;28;20057;-58
2021/05/30 01:04:35;;;;;;;2.47;1.88;;;21.10;53.30;;;;;;5045816;28;20089;-57
2021/05/30 01:07:03;;;;;;;3.13;1.83;;;21.00;53.10;;;;;;5040199;28;20046;-58
2021/05/30 01:09:32;;;;;;;2.88;1.67;;;21.10;53.30;;;;;;5050510;28;20040;-55
2021/05/30 01:12:02;;;;;;;2.42;1.75;;;21.00;53.20;;;;;;5050449;28;20045;-58
2021/05/30 01:14:31;;;;;;;2.75;1.80;;;21.10;53.30;;;;;;5047677;28;20124;-57
2021/05/30 01:16:58;;;;;;;3.40;1.70;;;21.00;53.20;;;;;;5041371;28;20047;-57
2021/05/30 01:19:31;;;;;;;2.42;1.58;;;21.00;53.20;;;;;;5053665;28;20041;-56
2021/05/30 01:21:59;;;;;;;2.25;1.55;;;21.00;53.20;;;;;;5053642;28;20049;-58
2021/05/30 01:24:26;;;;;;;2.33;1.60;;;21.00;53.20;;;;;;5051176;28;20045;-58
2021/05/30 01:26:53;;;;;;;1.77;1.30;;;21.00;53.20;;;;;;5050720;28;20044;-58
2021/05/30 01:29:20;;;;;;;2.55;1.90;;;21.00;53.20;;;;;;5036246;28;20094;-58
2021/05/30 01:31:48;;;;;;;2.70;1.88;;;21.00;53.30;;;;;;5050981;28;20053;-58
2021/05/30 01:34:15;;;;;;;1.52;1.40;;;21.00;53.30;;;;;;5052544;28;20045;-56
2021/05/30 01:36:43;;;;;;;2.90;1.77;;;21.00;53.30;;;;;;5033829;28;20057;-58
2021/05/30 01:39:10;;;;;;;2.65;1.55;;;21.00;53.20;;;;;;5033902;28;20052;-57
2021/05/30 01:41:37;;;;;;;3.13;1.80;;;21.00;53.30;;;;;;5052563;28;20045;-58
2021/05/30 01:44:05;;;;;;;2.55;1.67;;;21.00;53.20;;;;;;5052071;28;20110;-57
2021/05/30 01:46:32;;;;;;;3.45;1.50;;;21.00;53.20;;;;;;5035421;28;20049;-59
2021/05/30 01:48:59;;;;;;;2.05;1.60;;;21.00;53.30;;;;;;5049936;28;20543;-58
2021/05/30 01:51:26;;;;;;;1.77;1.60;;;21.00;53.20;;;;;;5053075;28;20539;-57
2021/05/30 01:54:03;;;;;;;2.75;1.35;;;21.00;53.20;;;;;;5052780;28;20087;-57
2021/05/30 01:59:19;;;;;;;1.95;1.52;;;21.00;53.30;;;;;;5050098;28;20053;-58
2021/05/30 02:01:48;;;;;;;2.47;1.67;;;21.00;53.30;;;;;;5053255;28;20057;-58
2021/05/30 02:04:15;;;;;;;2.65;1.70;;;21.00;53.30;;;;;;5052920;28;20107;-58
2021/05/30 02:06:43;;;;;;;2.00;1.50;;;21.00;53.30;;;;;;5053652;28;20045;-57
2021/05/30 02:09:11;;;;;;;2.08;1.40;;;21.00;53.20;;;;;;5040108;28;20042;-58
2021/05/30 02:11:39;;;;;;;2.17;1.40;;;21.00;53.30;;;;;;5055721;28;20044;-59
2021/05/30 02:14:07;;;;;;;2.45;1.60;;;21.00;53.30;;;;;;5057520;28;20049;-58
2021/05/30 02:16:38;;;;;;;2.42;1.30;;;21.00;53.30;;;;;;5053090;28;20056;-58
2021/05/30 02:19:06;;;;;;;2.28;1.50;;;21.00;53.30;;;;;;5050844;28;20045;-58
2021/05/30 02:21:43;;;;;;;2.60;1.52;;;21.00;53.20;;;;;;5043817;28;20045;-58
2021/05/30 02:24:13;;;;;;;2.13;1.60;;;21.00;53.30;;;;;;5036545;28;20493;-57
2021/05/30 02:26:40;;;;;;;2.10;1.40;;;21.00;53.30;;;;;;5035444;28;20041;-58
2021/05/30 02:29:09;;;;;;;1.80;1.25;;;21.00;53.30;;;;;;5044104;28;20098;-58
2021/05/30 02:31:36;;;;;;;2.13;1.38;;;21.00;53.30;;;;;;5069608;28;20582;-58
2021/05/30 02:34:03;;;;;;;2.35;1.38;;;21.00;53.30;;;;;;5069719;28;20049;-56
2021/05/30 02:36:31;;;;;;;1.38;1.17;;;21.00;53.30;;;;;;5069598;28;20079;-58
2021/05/30 02:38:58;;;;;;;2.67;1.40;;;21.00;53.30;;;;;;5055596;28;20451;-58
2021/05/30 02:41:26;;;;;;;1.60;1.13;;;21.00;53.30;;;;;;5055542;28;20056;-57
2021/05/30 02:43:53;;;;;;;1.58;1.30;;;21.00;53.30;;;;;;5056635;28;20056;-56
2021/05/30 02:46:20;;;;;;;2.00;1.23;;;21.00;53.30;;;;;;5056451;28;20041;-58
2021/05/30 02:48:47;;;;;;;1.30;1.15;;;21.00;53.30;;;;;;5057243;28;20485;-58
2021/05/30 02:51:14;;;;;;;2.03;1.30;;;21.00;53.30;;;;;;5056068;28;20045;-57
2021/05/30 02:53:42;;;;;;;1.85;1.25;;;21.00;53.30;;;;;;5038572;28;20053;-55
2021/05/30 02:56:09;;;;;;;1.35;1.10;;;21.00;53.30;;;;;;5054485;28;20447;-58
2021/05/30 02:58:36;;;;;;;1.80;1.20;;;21.00;53.30;;;;;;5054202;28;20053;-59
2021/05/30 03:01:03;;;;;;;1.95;1.40;;;21.00;53.30;;;;;;5055998;28;20049;-56
2021/05/30 03:03:30;;;;;;;1.65;1.30;;;21.00;53.30;;;;;;5055111;28;20095;-59
2021/05/30 03:05:57;;;;;;;1.70;1.35;;;21.00;53.30;;;;;;5051595;28;20123;-57
2021/05/30 03:08:24;;;;;;;2.47;1.50;;;21.00;53.30;;;;;;5051464;28;20049;-58
2021/05/30 03:10:51;;;;;;;1.85;1.38;;;21.00;53.30;;;;;;5053885;28;20037;-57
2021/05/30 03:13:19;;;;;;;2.53;1.38;;;21.00;53.30;;;;;;5053506;28;20045;-56
2021/05/30 03:15:46;;;;;;;1.80;1.25;;;21.00;53.30;;;;;;5044252;28;20425;-58
2021/05/30 03:18:13;;;;;;;1.77;1.10;;;21.00;53.30;;;;;;5039335;28;20049;-57
2021/05/30 03:20:41;;;;;;;2.75;1.40;;;21.00;53.30;;;;;;5037354;28;20053;-58
2021/05/30 03:23:08;;;;;;;1.48;1.20;;;21.00;53.30;;;;;;5038467;28;20058;-57
2021/05/30 03:25:36;;;;;;;2.28;1.05;;;21.00;53.30;;;;;;5044907;28;20107;-56
2021/05/30 03:28:04;;;;;;;1.30;0.98;;;21.00;53.40;;;;;;5054568;28;20049;-57
2021/05/30 03:30:32;;;;;;;1.48;1.10;;;21.00;53.30;;;;;;5055796;28;20041;-58
2021/05/30 03:33:00;;;;;;;2.72;1.40;;;21.00;53.30;;;;;;5053160;28;20052;-58
2021/05/30 03:35:28;;;;;;;1.17;1.00;;;21.00;53.30;;;;;;5054344;28;20041;-57
2021/05/30 03:37:57;;;;;;;2.20;1.40;;;21.00;53.30;;;;;;5051470;28;20048;-58
2021/05/30 03:42:53;;;;;;;1.83;1.40;;;21.00;53.40;;;;;;5039145;28;20049;-58
2021/05/30 03:45:21;;;;;;;1.88;1.00;;;21.00;53.30;;;;;;5037550;28;20052;-57
2021/05/30 03:47:49;;;;;;;2.15;1.20;;;21.00;53.30;;;;;;5052942;28;20041;-56
2021/05/30 03:50:18;;;;;;;1.55;1.15;;;21.00;53.30;;;;;;5054103;28;20049;-58
2021/05/30 03:52:45;;;;;;;1.52;1.10;;;21.00;53.30;;;;;;5051811;28;20053;-58
2021/05/30 03:55:14;;;;;;;1.65;1.10;;;21.00;53.30;;;;;;5054231;28;20459;-58
2021/05/30 03:57:42;;;;;;;1.13;1.00;;;21.00;53.40;;;;;;5055236;28;20057;-57
2021/05/30 04:00:12;;;;;;;2.17;1.33;;;21.00;53.30;;;;;;5052612;28;20081;-57
2021/05/30 04:02:40;;;;;;;1.20;1.08;;;21.00;53.30;;;;;;5054084;28;20049;-58
2021/05/30 04:05:07;;;;;;;1.65;1.15;;;21.00;53.30;;;;;;5052653;28;20052;-56
2021/05/30 04:07:37;;;;;;;1.92;1.10;;;21.00;53.30;;;;;;5052082;28;20410;-57
2021/05/30 04:10:08;;;;;;;2.10;1.10;;;21.00;53.30;;;;;;5039929;28;20041;-58
2021/05/30 04:12:36;;;;;;;1.90;1.30;;;21.00;53.30;;;;;;5050762;28;20041;-58
2021/05/30 04:15:06;;;;;;;1.92;1.10;;;21.00;53.30;;;;;;5054616;28;20102;-56
2021/05/30 04:17:33;;;;;;;2.70;1.30;;;21.00;53.30;;;;;;5067983;28;20079;-57
2021/05/30 04:20:01;;;;;;;3.50;1.33;;;21.00;53.30;;;;;;5042389;28;20564;-58
2021/05/30 04:22:28;;;;;;;1.80;1.40;;;21.00;53.30;;;;;;5048613;28;20470;-58
2021/05/30 04:24:55;;;;;;;1.50;0.93;;;21.00;53.30;;;;;;5053610;28;20126;-58
2021/05/30 04:27:23;;;;;;;1.42;1.17;;;21.10;53.30;;;;;;5053394;28;20041;-58
2021/05/30 04:29:50;;;;;;;1.88;1.10;;;21.00;53.20;;;;;;5053415;28;20118;-58
2021/05/30 04:32:17;;;;;;;1.10;1.00;;;21.10;53.20;;;;;;5047283;28;20045;-58
2021/05/30 04:34:44;;;;;;;2.05;1.00;;;21.10;53.20;;;;;;5042213;28;20045;-57
2021/05/30 04:37:11;;;;;;;1.60;1.08;;;21.10;53.10;;;;;;5048967;28;20099;-58
2021/05/30 04:39:38;;;;;;;1.67;1.20;;;21.10;53.10;;;;;;5036685;28;20493;-58
2021/05/30 04:42:08;;;;;;;1.35;1.00;;;21.10;53.10;;;;;;5036538;28;20053;-57
2021/05/30 04:44:35;;;;;;;1.45;1.10;;;21.10;53.10;;;;;;5037592;28;20052;-57
2021/05/30 04:47:03;;;;;;;2.42;1.30;;;21.10;53.10;;;;;;5051885;28;20049;-59
2021/05/30 04:49:30;;;;;;;2.35;1.10;;;21.10;53.10;;;;;;5053774;28;20147;-58
2021/05/30 04:51:57;;;;;;;1.55;0.98;;;21.10;53.10;;;;;;5052228;28;20118;-58
2021/05/30 04:54:24;;;;;;;2.05;1.20;;;21.10;53.10;;;;;;5053095;28;20092;-57
2021/05/30 04:56:53;;;;;;;1.20;1.00;;;21.10;53.10;;;;;;5053101;28;20072;-58
2021/05/30 04:59:20;;;;;;;1.50;1.23;;;21.10;53.10;;;;;;5035372;28;20041;-56
2021/05/30 05:01:47;;;;;;;1.73;1.10;;;21.10;53.10;;;;;;5067378;28;20079;-56
2021/05/30 05:04:14;;;;;;;1.80;1.23;;;21.10;53.10;;;;;;5036898;28;20045;-57
2021/05/30 05:06:41;;;;;;;1.70;1.30;;;21.10;53.10;;;;;;5039388;28;20049;-57
2021/05/30 05:09:09;;;;;;;3.35;1.20;;;21.10;53.10;;;;;;5051258;28;20049;-58
2021/05/30 05:11:36;;;;;;;1.38;1.08;;;21.20;53.10;;;;;;5053462;28;20067;-57
2021/05/30 05:14:03;;;;;;;1.23;0.93;;;21.20;53.00;;;;;;5051781;28;20045;-57
2021/05/30 05:16:31;;;;;;;1.38;1.17;;;21.20;53.00;;;;;;5041125;28;20576;-57
2021/05/30 05:18:59;;;;;;;1.58;1.20;;;21.20;53.00;;;;;;5046362;28;20102;-57
2021/05/30 05:21:27;;;;;;;1.52;0.90;;;21.20;52.90;;;;;;5043935;28;20489;-58
2021/05/30 05:23:54;;;;;;;1.52;1.20;;;21.20;52.90;;;;;;5036183;28;20052;-58
2021/05/30 05:26:24;;;;;;;1.00;0.90;;;21.30;52.90;;;;;;5046348;28;20045;-58
2021/05/30 05:28:53;;;;;;;2.72;0.98;;;21.30;52.80;;;;;;5066242;28;20063;-57
2021/05/30 05:31:20;;;;;;;1.17;0.98;;;21.30;52.80;;;;;;5047039;28;20052;-58
2021/05/30 05:33:47;;;;;;;1.70;1.00;;;21.30;52.70;;;;;;5036892;28;20128;-56
2021/05/30 05:36:19;;;;;;;1.30;1.05;;;21.40;52.70;;;;;;5040982;28;20091;-57
2021/05/30 05:38:47;;;;;;;1.25;1.10;;;21.40;52.60;;;;;;5049155;28;20046;-58
2021/05/30 05:41:14;;;;;;;2.15;1.10;;;21.40;52.50;;;;;;5040353;28;20086;-58
2021/05/30 05:43:41;;;;;;;2.13;1.08;;;21.40;52.50;;;;;;5053428;28;20102;-57
2021/05/30 05:46:08;;;;;;;1.40;1.00;;;21.50;52.40;;;;;;5051998;28;20045;-58
2021/05/30 05:48:36;;;;;;;1.88;1.05;;;21.50;52.40;;;;;;5051762;28;20048;-54
2021/05/30 05:51:03;;;;;;;2.90;1.02;;;21.50;52.30;;;;;;5052129;28;20075;-58
2021/05/30 05:53:31;;;;;;;1.52;1.10;;;21.50;52.30;;;;;;5034498;28;20056;-57
2021/05/30 05:55:58;;;;;;;1.50;1.08;;;21.60;52.40;;;;;;5052298;28;20130;-57
2021/05/30 05:58:25;;;;;;;1.55;1.08;;;21.50;52.20;;;;;;5051191;28;20052;-58
2021/05/30 06:00:52;;;;;;;2.05;0.95;;;21.60;52.20;;;;;;5052390;28;20053;-58
2021/05/30 06:03:20;;;;;;;1.20;0.80;;;21.60;52.20;;;;;;5034390;28;20129;-58
2021/05/30 06:05:47;;;;;;;2.00;1.20;;;21.60;52.20;;;;;;5054214;28;20049;-56
2021/05/30 06:08:14;;;;;;;1.30;1.10;;;21.50;52.20;;;;;;5053677;28;20102;-58
2021/05/30 06:10:42;;;;;;;1.35;0.90;;;21.50;52.20;;;;;;5042233;28;20049;-57
2021/05/30 06:13:10;;;;;;;1.60;1.30;;;21.50;52.20;;;;;;5053594;28;20041;-58
2021/05/30 06:15:41;;;;;;;1.15;1.00;;;21.50;52.20;;;;;;5056055;28;20409;-57
2021/05/30 06:18:13;;;;;;;1.23;1.08;;;21.50;52.30;;;;;;5056077;28;20052;-58
2021/05/30 06:20:42;;;;;;;1.27;0.90;;;21.50;52.20;;;;;;5045918;28;20045;-58
2021/05/30 06:23:10;;;;;;;2.25;1.13;;;21.50;52.30;;;;;;5051121;28;20103;-56
2021/05/30 06:25:38;;;;;;;1.38;1.10;;;21.60;52.30;;;;;;5056963;28;20057;-57
2021/05/30 06:28:05;;;;;;;1.55;1.10;;;21.60;52.20;;;;;;5056423;28;20497;-57
2021/05/30 06:30:36;;;;;;;3.58;0.98;;;21.60;52.10;;;;;;5056460;28;20052;-58
2021/05/30 06:33:05;;;;;;;2.90;1.13;;;21.60;52.00;;;;;;5056926;28;20160;-56
2021/05/30 06:35:33;;;;;;;1.85;1.13;;;21.70;52.10;;;;;;5055725;28;20099;-56
2021/05/30 06:38:01;;;;;;;1.67;1.08;;;21.70;52.00;;;;;;5056275;28;20060;-58
2021/05/30 06:40:29;;;;;;;2.15;1.08;;;21.70;52.00;;;;;;5054538;28;20057;-59
2021/05/30 06:42:56;;;;;;;1.85;1.05;;;21.60;51.90;;;;;;5056460;28;20045;-58
2021/05/30 06:45:24;;;;;;;1.08;0.93;;;21.70;52.00;;;;;;5050931;28;20119;-58
2021/05/30 06:47:52;;;;;;;1.00;0.90;;;21.60;52.00;;;;;;5040165;28;20037;-58
2021/05/30 06:50:20;;;;;;;1.80;1.30;;;21.60;52.00;;;;;;5039711;28;20053;-57
2021/05/30 06:52:48;;;;;;;2.20;1.10;;;21.60;52.10;;;;;;5056089;28;20733;-55
2021/05/30 06:55:19;;;;;;;1.80;1.40;;;21.70;52.00;;;;;;5055374;28;20049;-56
2021/05/30 06:57:46;;;;;;;3.03;1.13;;;21.70;52.00;;;;;;5037433;28;20044;-56
2021/05/30 07:00:14;;;;;;;1.55;1.17;;;21.70;51.90;;;;;;5054050;28;20053;-57
2021/05/30 07:02:43;;;;;;;2.53;1.17;;;21.70;51.90;;;;;;5055286;28;20045;-58
2021/05/30 07:05:11;;;;;;;2.72;1.27;;;21.70;51.80;;;;;;5036847;28;20050;-58
2021/05/30 07:07:39;;;;;;;1.58;1.00;;;21.80;51.80;;;;;;5054079;28;20057;-57
2021/05/30 07:10:11;;;;;;;1.55;1.23;;;21.80;51.70;;;;;;5054491;28;20052;-58
2021/05/30 07:12:38;;;;;;;1.40;1.02;;;21.90;51.60;;;;;;5038512;28;20064;-58
2021/05/30 07:15:06;;;;;;;1.83;1.30;;;21.90;51.50;;;;;;5038919;28;20099;-58
2021/05/30 07:17:37;;;;;;;1.55;0.90;;;21.90;51.50;;;;;;5039724;28;20111;-57
2021/05/30 07:20:07;;;;;;;2.50;1.02;;;22.00;51.40;;;;;;5053997;28;20049;-58
2021/05/30 07:22:36;;;;;;;1.50;1.10;;;22.00;51.40;;;;;;5056023;28;20049;-58
2021/05/30 07:25:04;;;;;;;2.28;1.40;;;22.00;51.30;;;;;;5054621;28;20060;-58
2021/05/30 07:27:35;;;;;;;1.60;1.10;;;22.00;51.30;;;;;;5054777;28;20052;-58
2021/05/30 07:30:06;;;;;;;1.35;1.05;;;22.00;51.20;;;;;;5055772;28;20044;-58
2021/05/30 07:32:34;;;;;;;1.75;1.30;;;22.10;51.20;;;;;;5054107;28;20044;-55
2021/05/30 07:35:01;;;;;;;1.42;1.02;;;22.10;51.10;;;;;;5043765;28;20052;-58
2021/05/30 07:37:29;;;;;;;2.15;1.30;;;22.10;51.00;;;;;;5039057;28;20467;-58
2021/05/30 07:39:56;;;;;;;1.40;1.23;;;22.10;50.90;;;;;;5045334;28;20056;-58
2021/05/30 07:42:23;;;;;;;2.13;1.45;;;22.20;51.00;;;;;;5054513;28;20045;-59
2021/05/30 07:44:50;;;;;;;2.00;1.40;;;22.20;51.00;;;;;;5046063;28;20124;-57
2021/05/30 07:47:18;;;;;;;2.20;1.50;;;22.20;50.80;;;;;;5043511;28;20098;-58
2021/05/30 07:49:45;;;;;;;1.55;1.27;;;22.30;50.80;;;;;;5055499;28;20136;-59
2021/05/30 07:52:12;;;;;;;2.05;1.20;;;22.30;50.70;;;;;;5049797;28;20045;-58
2021/05/30 07:54:39;;;;;;;1.92;1.15;;;22.30;50.70;;;;;;5040754;28;20052;-58
2021/05/30 07:57:07;;;;;;;2.22;1.20;;;22.30;50.70;;;;;;5051963;28;20116;-58
2021/05/30 07:59:37;;;;;;;1.77;1.15;;;22.30;50.70;;;;;;5040007;28;20409;-58
2021/05/30 08:02:04;;;;;;;2.35;1.30;;;22.30;50.70;;;;;;5054075;28;20431;-59
2021/05/30 08:04:32;;;;;;;1.58;1.08;;;22.30;50.80;;;;;;5054157;28;20444;-56
2021/05/30 08:07:00;;;;;;;1.30;1.20;;;22.30;50.80;;;;;;5036479;28;20063;-59
2021/05/30 08:09:27;;;;;;;2.33;1.50;;;22.30;50.80;;;;;;5035340;28;20049;-58
2021/05/30 08:11:57;;;;;;;1.85;1.40;;;22.30;50.80;;;;;;5036141;28;20506;-58
2021/05/30 08:14:26;;;;;;;2.50;1.40;;;22.30;50.80;;;;;;5052966;28;20091;-58
2021/05/30 08:16:53;;;;;;;1.48;1.27;;;22.30;50.80;;;;;;5054838;28;20107;-58
2021/05/30 08:19:20;;;;;;;1.88;1.27;;;22.30;50.80;;;;;;5038454;28;20049;-58
2021/05/30 08:21:48;;;;;;;2.63;1.40;;;22.30;50.80;;;;;;5035931;28;20083;-58
2021/05/30 08:24:15;;;;;;;1.92;1.35;;;22.40;50.80;;;;;;5038202;28;20045;-59
2021/05/30 08:26:54;;;;;;;1.48;1.15;;;22.40;50.70;;;;;;5050740;28;20087;-58
2021/05/30 08:29:23;;;;;;;2.85;1.40;;;22.40;50.60;;;;;;5052134;28;20045;-58
2021/05/30 08:31:52;;;;;;;1.60;1.23;;;22.40;50.60;;;;;;5041039;28;20061;-58
2021/05/30 08:34:19;;;;;;;1.73;1.25;;;22.50;50.60;;;;;;5049755;28;20049;-58
2021/05/30 08:36:47;;;;;;;2.40;1.30;;;22.50;50.60;;;;;;5052999;28;20493;-59
2021/05/30 08:39:15;;;;;;;1.65;1.30;;;22.50;50.50;;;;;;5051944;28;20049;-58
2021/05/30 08:41:43;;;;;;;1.38;1.17;;;22.50;50.40;;;;;;5051836;28;20049;-58
2021/05/30 08:44:11;;;;;;;1.50;1.40;;;22.50;50.40;;;;;;5053332;28;20056;-58
2021/05/30 08:46:40;;;;;;;2.03;1.35;;;22.50;50.40;;;;;;5051889;28;20045;-58
2021/05/30 08:49:09;;;;;;;1.73;1.20;;;22.50;50.40;;;;;;5045407;28;20448;-58
2021/05/30 08:51:39;;;;;;;2.38;1.42;;;22.40;50.40;;;;;;5044555;28;20037;-58
2021/05/30 08:54:17;;;;;;;2.78;1.42;;;22.40;50.60;;;;;;5053014;28;20041;-59
2021/05/30 08:56:47;;;;;;;2.10;1.60;;;22.40;50.50;;;;;;5046664;28;20045;-57
2021/05/30 08:59:16;;;;;;;1.67;1.50;;;22.40;50.50;;;;;;5036235;28;20049;-58
2021/05/30 09:01:45;;;;;;;1.90;1.50;;;22.40;50.60;;;;;;5050863;28;20069;-58
2021/05/30 09:04:13;;;;;;;3.10;1.52;;;22.40;50.60;;;;;;5042418;28;20048;-58
2021/05/30 09:06:45;;;;;;;1.88;1.40;;;22.40;50.50;;;;;;5050122;28;20041;-57
2021/05/30 09:09:15;;;;;;;2.08;1.73;;;22.40;50.40;;;;;;5048389;28;20045;-58
2021/05/30 09:11:51;;;;;;;3.00;1.63;;;22.40;50.40;;;;;;5036256;28;20038;-58
2021/05/30 09:14:32;;;;;;;2.03;1.42;;;22.40;50.40;;;;;;5041354;28;20071;-58
2021/05/30 09:17:02;;;;;;;1.70;1.60;;;22.40;50.30;;;;;;5047544;28;20045;-57
2021/05/30 09:19:50;;;;;;;2.08;1.52;;;22.40;50.40;;;;;;5041579;28;20053;-57
2021/05/30 09:22:19;;;;;;;2.45;1.70;;;22.40;50.30;;;;;;5051485;28;20053;-58
2021/05/30 09:24:49;;;;;;;1.92;1.58;;;22.40;50.30;;;;;;5048129;28;20052;-58
2021/05/30 09:27:31;;;;;;;;;;;22.40;50.30;;;;;;5042632;28;20055;-58
2021/05/30 09:30:13;;;;;;;2.03;1.50;;;22.40;50.30;;;;;;5046494;28;19982;-58
2021/05/30 09:33:04;;;;;;;2.20;1.60;;;22.40;50.30;;;;;;5042886;28;20044;-58
2021/05/30 09:35:37;;;;;;;2.83;1.88;;;22.40;50.40;;;;;;5042992;28;20429;-58
2021/05/30 09:38:12;;;;;;;1.48;1.38;;;22.40;50.40;;;;;;5047453;28;20087;-58
2021/05/30 09:40:40;;;;;;;2.50;1.60;;;22.30;50.40;;;;;;5053587;28;20102;-58
2021/05/30 09:43:10;;;;;;;2.88;1.65;;;22.30;50.50;;;;;;5052306;28;20049;-56
2021/05/30 09:45:54;;;;;;;3.72;1.40;;;22.30;50.40;;;;;;5044365;28;20042;-59
2021/05/30 09:48:21;;;;;;;2.17;1.50;;;22.30;50.40;;;;;;5044926;28;20079;-59
2021/05/30 09:51:08;;;;;;;1.63;1.33;;;22.40;50.40;;;;;;5052051;28;20091;-58
2021/05/30 09:53:52;;;;;;;1.75;1.35;;;22.40;50.40;;;;;;5052620;28;20102;-58
2021/05/30 09:56:46;;;;;;;1.60;1.50;;;22.40;50.30;;;;;;5066210;28;20052;-57
2021/05/30 09:59:13;;;;;;;1.63;1.30;;;22.40;50.20;;;;;;5052070;28;20052;-59
2021/05/30 10:01:56;;;;;;;1.55;1.40;;;22.40;50.20;;;;;;5052167;28;20114;-59
2021/05/30 10:04:25;;;;;;;1.60;1.50;;;22.30;50.20;;;;;;5053315;28;20053;-58
2021/05/30 10:06:55;;;;;;;1.88;1.40;;;22.30;50.20;;;;;;5052297;28;20049;-58
2021/05/30 10:09:24;;;;;;;1.42;1.33;;;22.30;50.20;;;;;;5035714;28;20053;-56
2021/05/30 10:11:53;;;;;;;2.28;1.67;;;22.30;50.30;;;;;;5036304;28;20494;-58
2021/05/30 10:14:23;;;;;;;2.25;1.73;;;22.30;50.30;;;;;;5063031;28;20049;-56
2021/05/30 10:16:50;;;;;;;2.42;1.55;;;22.30;50.30;;;;;;5051801;28;20053;-58
2021/05/30 10:19:31;;;;;;;2.05;1.58;;;22.40;50.30;;;;;;5050706;28;20049;-59
2021/05/30 10:22:00;;;;;;;3.45;2.13;;;22.40;50.30;;;;;;5051604;28;20041;-57
2021/05/30 10:24:29;;;;;;;2.08;1.55;;;22.40;50.20;;;;;;5050398;28;20524;-57
2021/05/30 10:27:14;;;;;;;3.80;1.50;;;22.40;50.20;;;;;;5051919;28;20103;-58
2021/05/30 10:30:11;;;;;;;2.03;1.50;;;22.40;50.00;;;;;;5050368;28;20045;-58
2021/05/30 10:32:41;;;;;;;2.10;1.52;;;22.40;49.90;;;;;;5051991;28;20045;-59
2021/05/30 10:35:26;;;;;;;1.85;1.50;;;22.50;50.00;;;;;;5042032;28;20071;-58
2021/05/30 10:38:08;;;;;;;2.20;1.55;;;22.50;50.00;;;;;;5050784;28;20041;-59
2021/05/30 10:40:38;;;;;;;1.50;1.40;;;22.40;50.00;;;;;;5040105;28;20041;-58
2021/05/30 10:43:12;;;;;;;2.63;1.40;;;22.40;50.00;;;;;;5034152;28;20049;-59
2021/05/30 10:45:42;;;;;;;2.92;2.03;;;22.40;50.00;;;;;;5050755;28;20420;-58
2021/05/30 10:48:15;;;;;;;4.53;1.63;;;22.50;49.90;;;;;;5035307;28;20585;-59
2021/05/30 10:53:36;;;;;;;1.98;1.77;;;22.50;49.80;;;;;;5047239;28;20076;-59
2021/05/30 10:56:22;;;;;;;3.85;1.65;;;22.50;49.70;;;;;;5055673;28;20049;-58
2021/05/30 10:59:04;;;;;;;1.75;1.65;;;22.50;49.60;;;;;;5054052;28;20052;-59
2021/05/30 11:01:39;;;;;;;4.28;1.70;;;22.50;49.60;;;;;;5037856;28;20053;-58
2021/05/30 11:04:28;;;;;;;1.90;1.70;;;22.60;49.60;;;;;;5036525;28;20505;-59
2021/05/30 11:07:18;;;;;;;1.80;1.50;;;22.60;49.40;;;;;;5054279;28;20057;-58
2021/05/30 11:09:53;;;;;;;2.17;1.98;;;22.70;49.30;;;;;;5041996;28;20447;-58
2021/05/30 11:12:49;;;;;;;2.80;1.70;;;22.70;49.30;;;;;;5056026;28;20052;-59
2021/05/30 11:15:18;;;;;;;2.70;1.70;;;22.70;49.20;;;;;;5054715;28;20045;-58
2021/05/30 11:17:53;;;;;;;3.65;1.90;;;22.70;49.10;;;;;;5048613;28;20080;-58
2021/05/30 11:20:43;;;;;;;1.83;1.45;;;22.70;49.00;;;;;;5045695;28;20052;-58
2021/05/30 11:23:16;;;;;;;1.75;1.60;;;22.80;49.00;;;;;;5054805;28;20053;-58
2021/05/30 11:25:55;;;;;;;1.70;1.40;;;22.80;48.90;;;;;;5052573;28;20045;-56
2021/05/30 11:28:25;;;;;;;2.30;1.73;;;22.80;48.80;;;;;;5054494;28;20045;-59
2021/05/30 11:30:58;;;;;;;1.70;1.42;;;22.90;48.70;;;;;;5046517;28;20041;-59
2021/05/30 11:33:25;;;;;;;2.10;1.42;;;22.90;48.60;;;;;;5046053;28;20044;-59
2021/05/30 11:35:59;;;;;;;2.88;1.85;;;23.00;48.60;;;;;;5054400;28;20128;-59
2021/05/30 11:38:51;;;;;;;7.30;1.60;;;22.90;48.50;;;;;;5048385;28;20095;-59
2021/05/30 11:41:29;;;;;;;2.50;1.60;;;23.00;48.50;;;;;;5061920;28;20492;-58
2021/05/30 11:44:07;;;;;;;2.50;1.73;;;23.00;48.30;;;;;;5042797;28;20045;-58
2021/05/30 11:46:57;;;;;;;2.78;1.70;;;23.00;48.40;;;;;;5038044;28;20041;-58
2021/05/30 11:49:25;;;;;;;2.30;1.75;;;23.00;48.20;;;;;;5038034;28;20080;-59
2021/05/30 11:52:15;;;;;;;2.95;1.63;;;23.00;48.30;;;;;;5037476;28;20053;-59
2021/05/30 11:54:42;;;;;;;2.70;1.50;;;23.10;48.40;;;;;;5052104;28;20087;-59
2021/05/30 11:57:24;;;;;;;4.85;1.98;;;23.10;48.40;;;;;;5041733;28;20049;-59
2021/05/30 12:00:07;;;;;;;3.75;1.52;;;23.10;48.30;;;;;;5052852;28;20060;-59
2021/05/30 12:02:41;;;;;;;2.72;1.55;;;23.10;48.10;;;;;;5038200;28;20081;-59
2021/05/30 12:05:13;;;;;;;3.58;2.10;;;23.10;48.00;;;;;;5054596;28;20153;-59
2021/05/30 12:07:40;;;;;;;1.60;1.50;;;23.10;47.90;;;;;;5053413;28;20049;-58
2021/05/30 12:10:09;;;;;;;1.95;1.52;;;23.10;48.00;;;;;;5053450;28;20041;-59
2021/05/30 12:12:48;;;;;;;2.08;1.50;;;23.10;48.00;;;;;;5053973;28;20447;-59
2021/05/30 12:15:19;;;;;;;2.85;1.98;;;23.10;48.00;;;;;;5052886;28;20056;-58
2021/05/30 12:18:02;;;;;;;2.22;1.98;;;23.10;47.90;;;;;;5053364;28;20048;-59
2021/05/30 12:20:35;;;;;;;2.33;1.70;;;23.00;47.90;;;;;;5052644;28;20080;-59
2021/05/30 12:23:11;;;;;;;2.33;1.70;;;23.00;47.80;;;;;;5040566;28;20056;-58
2021/05/30 12:26:15;;;;;;;3.28;2.15;;;23.10;47.90;;;;;;5051551;28;20460;-59
2021/05/30 12:28:43;;;;;;;6.68;1.75;;;23.10;47.90;;;;;;5034098;28;20061;-59
2021/05/30 12:31:16;;;;;;;4.47;1.80;;;23.10;47.90;;;;;;5035734;28;20073;-58
2021/05/30 12:33:51;;;;;;;2.85;2.03;;;23.10;47.80;;;;;;5053168;28;20073;-58
2021/05/30 12:36:31;;;;;;;2.72;1.50;;;23.10;47.80;;;;;;5053165;28;20049;-58
2021/05/30 12:39:11;;;;;;;2.58;1.60;;;23.00;47.60;;;;;;5036118;28;20520;-59
2021/05/30 12:41:44;;;;;;;3.50;2.15;;;23.10;47.70;;;;;;5036224;28;20045;-58
2021/05/30 12:44:13;;;;;;;3.13;1.90;;;23.10;47.70;;;;;;5035837;28;20493;-59
2021/05/30 12:46:54;;;;;;;2.38;1.77;;;23.10;47.60;;;;;;5053338;28;20053;-59
2021/05/30 12:49:22;;;;;;;4.72;1.73;;;23.00;47.50;;;;;;5035636;28;20052;-59
2021/05/30 12:52:17;;;;;;;1.75;1.45;;;23.00;47.50;;;;;;5068247;28;20065;-59
2021/05/30 12:55:06;;;;;;;2.15;1.75;;;23.00;47.50;;;;;;5037586;28;20040;-58
2021/05/30 12:57:37;;;;;;;3.03;1.70;;;23.00;47.60;;;;;;5053792;28;20041;-58
2021/05/30 13:00:13;;;;;;;4.10;1.73;;;23.00;47.60;;;;;;5050827;28;20065;-58
2021/05/30 13:02:40;;;;;;;1.85;1.70;;;23.00;47.60;;;;;;5039533;28;20097;-58
2021/05/30 13:05:09;;;;;;;5.55;1.77;;;23.00;47.60;;;;;;5053783;28;20128;-58
2021/05/30 13:07:36;;;;;;;3.22;1.80;;;23.00;47.60;;;;;;5039950;28;20052;-58
2021/05/30 13:10:06;;;;;;;2.42;2.05;;;23.00;47.60;;;;;;5052761;28;20049;-57
2021/05/30 13:12:41;;;;;;;2.28;1.70;;;23.00;47.50;;;;;;5051098;28;20041;-59